sensor_id;sensor_type;location;lat;lon;timestamp;pressure;altitude;pressure_sealevel;temperature;humidity
14689;BME280;7432;48.728;9.154;2023-02-28T00:00:06;97186.28;;;-2.22;64.06
14689;BME280;7432;48.728;9.154;2023-02-28T00:02:35;97184.50;;;-2.20;63.85
14689;BME280;7432;48.728;9.154;2023-02-28T00:05:01;97183.13;;;-2.27;64.23
14689;BME280;7432;48.728;9.154;2023-02-28T00:07:28;97183.88;;;-2.25;64.07
14689;BME280;7432;48.728;9.154;2023-02-28T00:09:55;97181.56;;;-2.30;64.92
14689;BME280;7432;48.728;9.154;2023-02-28T00:12:21;97178.13;;;-2.29;64.97
14689;BME280;7432;48.728;9.154;2023-02-28T00:14:49;97180.13;;;-2.35;64.80
14689;BME280;7432;48.728;9.154;2023-02-28T00:17:15;97177.72;;;-2.38;65.05
14689;BME280;7432;48.728;9.154;2023-02-28T00:19:43;97180.38;;;-2.42;65.51
14689;BME280;7432;48.728;9.154;2023-02-28T00:22:09;97170.16;;;-2.38;65.07
14689;BME280;7432;48.728;9.154;2023-02-28T00:24:35;97186.03;;;-2.36;64.87
14689;BME280;7432;48.728;9.154;2023-02-28T00:27:02;97183.59;;;-2.38;64.95
14689;BME280;7432;48.728;9.154;2023-02-28T00:29:28;97178.84;;;-2.46;65.92
14689;BME280;7432;48.728;9.154;2023-02-28T00:31:56;97181.94;;;-2.39;65.86
14689;BME280;7432;48.728;9.154;2023-02-28T00:34:22;97176.91;;;-2.39;66.14
14689;BME280;7432;48.728;9.154;2023-02-28T00:36:49;97172.31;;;-2.50;65.58
14689;BME280;7432;48.728;9.154;2023-02-28T00:39:16;97177.72;;;-2.59;66.54
14689;BME280;7432;48.728;9.154;2023-02-28T00:41:43;97173.38;;;-2.55;66.18
14689;BME280;7432;48.728;9.154;2023-02-28T00:44:09;97179.91;;;-2.51;66.10
14689;BME280;7432;48.728;9.154;2023-02-28T00:46:36;97188.38;;;-2.52;66.61
14689;BME280;7432;48.728;9.154;2023-02-28T00:49:04;97180.88;;;-2.54;66.03
14689;BME280;7432;48.728;9.154;2023-02-28T00:51:30;97179.91;;;-2.51;66.12
14689;BME280;7432;48.728;9.154;2023-02-28T00:53:56;97181.16;;;-2.60;66.57
14689;BME280;7432;48.728;9.154;2023-02-28T00:56:23;97172.88;;;-2.63;67.20
14689;BME280;7432;48.728;9.154;2023-02-28T00:58:49;97178.66;;;-2.61;67.32
14689;BME280;7432;48.728;9.154;2023-02-28T01:01:15;97169.91;;;-2.53;66.82
14689;BME280;7432;48.728;9.154;2023-02-28T01:03:42;97167.63;;;-2.59;66.75
14689;BME280;7432;48.728;9.154;2023-02-28T01:06:09;97160.47;;;-2.68;67.34
14689;BME280;7432;48.728;9.154;2023-02-28T01:08:36;97170.69;;;-2.71;68.17
14689;BME280;7432;48.728;9.154;2023-02-28T01:11:07;97168.97;;;-2.70;67.67
14689;BME280;7432;48.728;9.154;2023-02-28T01:13:34;97169.34;;;-2.59;67.69
14689;BME280;7432;48.728;9.154;2023-02-28T01:16:00;97167.72;;;-2.60;68.09
14689;BME280;7432;48.728;9.154;2023-02-28T01:18:26;97170.03;;;-2.56;68.14
14689;BME280;7432;48.728;9.154;2023-02-28T01:20:54;97164.16;;;-2.56;68.51
14689;BME280;7432;48.728;9.154;2023-02-28T01:23:22;97166.56;;;-2.53;68.44
14689;BME280;7432;48.728;9.154;2023-02-28T01:25:49;97163.63;;;-2.63;68.67
14689;BME280;7432;48.728;9.154;2023-02-28T01:28:15;97158.22;;;-2.74;68.95
14689;BME280;7432;48.728;9.154;2023-02-28T01:30:42;97161.84;;;-2.81;69.43
14689;BME280;7432;48.728;9.154;2023-02-28T01:33:08;97162.63;;;-2.79;69.41
14689;BME280;7432;48.728;9.154;2023-02-28T01:35:35;97156.69;;;-2.78;69.84
14689;BME280;7432;48.728;9.154;2023-02-28T01:38:02;97156.56;;;-2.75;69.62
14689;BME280;7432;48.728;9.154;2023-02-28T01:40:30;97146.84;;;-2.84;69.56
14689;BME280;7432;48.728;9.154;2023-02-28T01:42:56;97160.91;;;-2.78;69.59
14689;BME280;7432;48.728;9.154;2023-02-28T01:45:25;97163.13;;;-2.71;70.02
14689;BME280;7432;48.728;9.154;2023-02-28T01:47:55;97157.75;;;-2.83;70.05
14689;BME280;7432;48.728;9.154;2023-02-28T01:50:26;97161.72;;;-2.78;70.08
14689;BME280;7432;48.728;9.154;2023-02-28T01:52:56;97161.91;;;-2.82;70.71
14689;BME280;7432;48.728;9.154;2023-02-28T01:55:28;97153.47;;;-2.81;70.44
14689;BME280;7432;48.728;9.154;2023-02-28T01:57:58;97150.44;;;-2.69;70.43
14689;BME280;7432;48.728;9.154;2023-02-28T02:00:28;97148.06;;;-2.72;70.32
14689;BME280;7432;48.728;9.154;2023-02-28T02:02:58;97142.75;;;-2.66;70.42
14689;BME280;7432;48.728;9.154;2023-02-28T02:05:27;97136.06;;;-2.67;70.73
14689;BME280;7432;48.728;9.154;2023-02-28T02:07:57;97138.91;;;-2.75;71.77
14689;BME280;7432;48.728;9.154;2023-02-28T02:10:30;97133.63;;;-2.69;71.18
14689;BME280;7432;48.728;9.154;2023-02-28T02:13:11;97140.31;;;-2.68;71.45
14689;BME280;7432;48.728;9.154;2023-02-28T02:15:42;97131.81;;;-2.65;70.75
14689;BME280;7432;48.728;9.154;2023-02-28T02:18:19;97132.31;;;-2.57;71.46
14689;BME280;7432;48.728;9.154;2023-02-28T02:21:12;97121.66;;;-2.64;71.31
14689;BME280;7432;48.728;9.154;2023-02-28T02:24:00;97124.50;;;-2.71;72.33
14689;BME280;7432;48.728;9.154;2023-02-28T02:26:58;97132.34;;;-2.59;71.63
14689;BME280;7432;48.728;9.154;2023-02-28T02:29:54;97128.25;;;-2.61;72.11
14689;BME280;7432;48.728;9.154;2023-02-28T02:32:39;97122.34;;;-2.60;72.29
14689;BME280;7432;48.728;9.154;2023-02-28T02:35:15;97120.56;;;-2.58;71.91
14689;BME280;7432;48.728;9.154;2023-02-28T02:37:49;97117.38;;;-2.62;72.55
14689;BME280;7432;48.728;9.154;2023-02-28T02:40:19;97114.00;;;-2.62;72.61
14689;BME280;7432;48.728;9.154;2023-02-28T02:42:51;97113.34;;;-2.66;72.90
14689;BME280;7432;48.728;9.154;2023-02-28T02:45:22;97125.38;;;-2.52;72.99
14689;BME280;7432;48.728;9.154;2023-02-28T02:47:50;97112.19;;;-2.59;72.63
14689;BME280;7432;48.728;9.154;2023-02-28T02:50:22;97122.97;;;-2.55;72.74
14689;BME280;7432;48.728;9.154;2023-02-28T02:52:53;97120.44;;;-2.55;73.39
14689;BME280;7432;48.728;9.154;2023-02-28T02:55:22;97115.47;;;-2.57;73.28
14689;BME280;7432;48.728;9.154;2023-02-28T02:57:53;97122.72;;;-2.49;73.11
14689;BME280;7432;48.728;9.154;2023-02-28T03:00:23;97117.06;;;-2.54;73.13
14689;BME280;7432;48.728;9.154;2023-02-28T03:02:52;97120.31;;;-2.52;73.49
14689;BME280;7432;48.728;9.154;2023-02-28T03:05:24;97127.94;;;-2.54;73.52
14689;BME280;7432;48.728;9.154;2023-02-28T03:07:51;97119.16;;;-2.45;73.69
14689;BME280;7432;48.728;9.154;2023-02-28T03:10:43;97116.25;;;-2.36;73.36
14689;BME280;7432;48.728;9.154;2023-02-28T03:13:41;97132.81;;;-2.49;74.56
14689;BME280;7432;48.728;9.154;2023-02-28T03:19:15;97129.59;;;-2.53;74.01
14689;BME280;7432;48.728;9.154;2023-02-28T03:21:56;97125.53;;;-2.57;74.95
14689;BME280;7432;48.728;9.154;2023-02-28T03:24:33;97128.50;;;-2.47;74.54
14689;BME280;7432;48.728;9.154;2023-02-28T03:27:06;97128.00;;;-2.55;74.74
14689;BME280;7432;48.728;9.154;2023-02-28T03:29:37;97134.16;;;-2.42;75.16
14689;BME280;7432;48.728;9.154;2023-02-28T03:32:08;97128.00;;;-2.35;74.74
14689;BME280;7432;48.728;9.154;2023-02-28T03:34:42;97115.22;;;-2.32;74.84
14689;BME280;7432;48.728;9.154;2023-02-28T03:37:17;97120.94;;;-2.47;75.41
14689;BME280;7432;48.728;9.154;2023-02-28T03:39:47;97115.91;;;-2.47;74.90
14689;BME280;7432;48.728;9.154;2023-02-28T03:42:18;97118.28;;;-2.44;75.93
14689;BME280;7432;48.728;9.154;2023-02-28T03:44:49;97119.41;;;-2.31;75.15
14689;BME280;7432;48.728;9.154;2023-02-28T03:47:22;97118.78;;;-2.36;75.31
14689;BME280;7432;48.728;9.154;2023-02-28T03:49:54;97120.22;;;-2.30;75.58
14689;BME280;7432;48.728;9.154;2023-02-28T03:52:27;97118.53;;;-2.30;74.86
14689;BME280;7432;48.728;9.154;2023-02-28T03:54:58;97123.22;;;-2.41;75.66
14689;BME280;7432;48.728;9.154;2023-02-28T03:57:33;97117.13;;;-2.37;75.42
14689;BME280;7432;48.728;9.154;2023-02-28T04:00:04;97117.59;;;-2.48;76.17
14689;BME280;7432;48.728;9.154;2023-02-28T04:02:34;97120.06;;;-2.46;76.20
14689;BME280;7432;48.728;9.154;2023-02-28T04:05:00;97123.88;;;-2.38;75.61
14689;BME280;7432;48.728;9.154;2023-02-28T04:07:30;97118.91;;;-2.39;75.16
14689;BME280;7432;48.728;9.154;2023-02-28T04:09:57;97129.41;;;-2.29;75.70
14689;BME280;7432;48.728;9.154;2023-02-28T04:12:24;97126.97;;;-2.31;75.63
14689;BME280;7432;48.728;9.154;2023-02-28T04:14:51;97123.00;;;-2.36;76.09
14689;BME280;7432;48.728;9.154;2023-02-28T04:17:17;97125.78;;;-2.24;75.55
14689;BME280;7432;48.728;9.154;2023-02-28T04:19:44;97130.44;;;-2.33;75.73
14689;BME280;7432;48.728;9.154;2023-02-28T04:22:10;97121.19;;;-2.33;75.77
14689;BME280;7432;48.728;9.154;2023-02-28T04:24:38;97120.28;;;-2.32;75.62
14689;BME280;7432;48.728;9.154;2023-02-28T04:27:06;97122.31;;;-2.40;76.45
14689;BME280;7432;48.728;9.154;2023-02-28T04:29:34;97129.59;;;-2.34;75.45
14689;BME280;7432;48.728;9.154;2023-02-28T04:32:01;97129.69;;;-2.35;75.98
14689;BME280;7432;48.728;9.154;2023-02-28T04:34:28;97130.84;;;-2.24;75.70
14689;BME280;7432;48.728;9.154;2023-02-28T04:36:55;97122.13;;;-2.35;76.31
14689;BME280;7432;48.728;9.154;2023-02-28T04:39:23;97119.19;;;-2.26;75.36
14689;BME280;7432;48.728;9.154;2023-02-28T04:41:51;97115.19;;;-2.30;76.21
14689;BME280;7432;48.728;9.154;2023-02-28T04:44:18;97123.09;;;-2.19;75.45
14689;BME280;7432;48.728;9.154;2023-02-28T04:46:47;97120.56;;;-2.19;75.50
14689;BME280;7432;48.728;9.154;2023-02-28T04:49:14;97121.56;;;-2.23;75.71
14689;BME280;7432;48.728;9.154;2023-02-28T04:51:41;97125.75;;;-2.22;74.99
14689;BME280;7432;48.728;9.154;2023-02-28T04:54:08;97122.66;;;-2.29;75.29
14689;BME280;7432;48.728;9.154;2023-02-28T04:56:35;97123.84;;;-2.17;75.68
14689;BME280;7432;48.728;9.154;2023-02-28T04:59:02;97117.22;;;-2.20;75.86
14689;BME280;7432;48.728;9.154;2023-02-28T05:01:30;97116.63;;;-2.25;75.72
14689;BME280;7432;48.728;9.154;2023-02-28T05:03:59;97122.41;;;-2.23;76.19
14689;BME280;7432;48.728;9.154;2023-02-28T05:06:27;97085.66;;;-2.47;76.04
14689;BME280;7432;48.728;9.154;2023-02-28T05:08:54;97126.09;;;-2.30;76.39
14689;BME280;7432;48.728;9.154;2023-02-28T05:11:22;97097.75;;;-2.35;76.24
14689;BME280;7432;48.728;9.154;2023-02-28T05:13:50;97125.78;;;-2.24;76.17
14689;BME280;7432;48.728;9.154;2023-02-28T05:16:18;97126.97;;;-2.31;76.76
14689;BME280;7432;48.728;9.154;2023-02-28T05:18:45;97120.44;;;-2.35;76.75
14689;BME280;7432;48.728;9.154;2023-02-28T05:21:24;97126.69;;;-2.25;76.35
14689;BME280;7432;48.728;9.154;2023-02-28T05:23:51;97129.41;;;-2.29;77.27
14689;BME280;7432;48.728;9.154;2023-02-28T05:26:17;97135.63;;;-2.18;77.06
14689;BME280;7432;48.728;9.154;2023-02-28T05:28:44;97139.72;;;-2.15;77.09
14689;BME280;7432;48.728;9.154;2023-02-28T05:31:11;97132.84;;;-2.12;76.32
14689;BME280;7432;48.728;9.154;2023-02-28T05:33:39;97141.38;;;-2.14;76.97
14689;BME280;7432;48.728;9.154;2023-02-28T05:36:06;97124.69;;;-2.37;77.36
14689;BME280;7432;48.728;9.154;2023-02-28T05:38:33;97138.34;;;-2.22;77.61
14689;BME280;7432;48.728;9.154;2023-02-28T05:40:59;97136.84;;;-2.26;78.37
14689;BME280;7432;48.728;9.154;2023-02-28T05:43:26;97137.97;;;-2.13;77.57
14689;BME280;7432;48.728;9.154;2023-02-28T05:45:52;97139.19;;;-2.03;77.13
14689;BME280;7432;48.728;9.154;2023-02-28T05:48:18;97138.38;;;-2.04;77.51
14689;BME280;7432;48.728;9.154;2023-02-28T05:50:46;97144.56;;;-2.11;78.47
14689;BME280;7432;48.728;9.154;2023-02-28T05:53:12;97139.84;;;-2.18;77.76
14689;BME280;7432;48.728;9.154;2023-02-28T05:55:39;97138.97;;;-2.17;78.44
14689;BME280;7432;48.728;9.154;2023-02-28T05:58:06;97142.81;;;-2.09;77.97
14689;BME280;7432;48.728;9.154;2023-02-28T06:00:32;97140.97;;;-2.05;78.36
14689;BME280;7432;48.728;9.154;2023-02-28T06:02:59;97144.16;;;-2.02;78.15
14689;BME280;7432;48.728;9.154;2023-02-28T06:05:27;97144.50;;;-2.09;77.26
14689;BME280;7432;48.728;9.154;2023-02-28T06:07:55;97145.88;;;-2.02;77.64
14689;BME280;7432;48.728;9.154;2023-02-28T06:10:21;97152.94;;;-2.10;77.99
14689;BME280;7432;48.728;9.154;2023-02-28T06:12:47;97144.09;;;-2.00;78.79
14689;BME280;7432;48.728;9.154;2023-02-28T06:15:15;97145.88;;;-2.02;79.08
14689;BME280;7432;48.728;9.154;2023-02-28T06:17:42;97145.81;;;-2.01;78.40
14689;BME280;7432;48.728;9.154;2023-02-28T06:20:10;97143.66;;;-2.10;78.49
14689;BME280;7432;48.728;9.154;2023-02-28T06:22:38;97145.31;;;-2.09;78.84
14689;BME280;7432;48.728;9.154;2023-02-28T06:25:06;97133.31;;;-2.22;78.19
14689;BME280;7432;48.728;9.154;2023-02-28T06:27:33;97146.41;;;-2.14;79.21
14689;BME280;7432;48.728;9.154;2023-02-28T06:30:00;97163.47;;;-2.01;78.48
14689;BME280;7432;48.728;9.154;2023-02-28T06:32:26;97166.59;;;-1.96;78.36
14689;BME280;7432;48.728;9.154;2023-02-28T06:34:52;97165.50;;;-1.90;77.53
14689;BME280;7432;48.728;9.154;2023-02-28T06:37:19;97180.66;;;-1.90;77.64
14689;BME280;7432;48.728;9.154;2023-02-28T06:39:45;97167.69;;;-1.83;77.83
14689;BME280;7432;48.728;9.154;2023-02-28T06:42:13;97179.56;;;-1.85;77.16
14689;BME280;7432;48.728;9.154;2023-02-28T06:44:39;97173.06;;;-1.90;77.40
14689;BME280;7432;48.728;9.154;2023-02-28T06:47:08;97173.16;;;-1.92;77.14
14689;BME280;7432;48.728;9.154;2023-02-28T06:49:35;97174.50;;;-1.85;77.13
14689;BME280;7432;48.728;9.154;2023-02-28T06:52:03;97174.50;;;-1.85;76.62
14689;BME280;7432;48.728;9.154;2023-02-28T06:54:29;97170.63;;;-1.73;76.79
14689;BME280;7432;48.728;9.154;2023-02-28T06:56:57;97175.94;;;-1.79;76.40
14689;BME280;7432;48.728;9.154;2023-02-28T06:59:25;97179.16;;;-1.75;76.07
14689;BME280;7432;48.728;9.154;2023-02-28T07:01:51;97179.91;;;-1.73;75.43
14689;BME280;7432;48.728;9.154;2023-02-28T07:04:18;97183.38;;;-1.76;75.81
14689;BME280;7432;48.728;9.154;2023-02-28T07:06:44;97187.34;;;-1.70;75.84
14689;BME280;7432;48.728;9.154;2023-02-28T07:09:10;97181.69;;;-1.75;75.04
14689;BME280;7432;48.728;9.154;2023-02-28T07:11:39;97192.53;;;-1.73;75.18
14689;BME280;7432;48.728;9.154;2023-02-28T07:14:06;97191.66;;;-1.72;74.73
14689;BME280;7432;48.728;9.154;2023-02-28T07:16:35;97188.78;;;-1.65;74.48
14689;BME280;7432;48.728;9.154;2023-02-28T07:19:01;97192.72;;;-1.59;75.04
14689;BME280;7432;48.728;9.154;2023-02-28T07:21:28;97198.59;;;-1.59;74.31
14689;BME280;7432;48.728;9.154;2023-02-28T07:23:55;97196.25;;;-1.63;74.79
14689;BME280;7432;48.728;9.154;2023-02-28T07:26:22;97188.56;;;-1.60;75.11
14689;BME280;7432;48.728;9.154;2023-02-28T07:28:49;97188.38;;;-1.56;74.07
14689;BME280;7432;48.728;9.154;2023-02-28T07:31:16;97192.31;;;-1.50;73.82
14689;BME280;7432;48.728;9.154;2023-02-28T07:33:44;97199.91;;;-1.50;74.05
14689;BME280;7432;48.728;9.154;2023-02-28T07:36:13;97198.16;;;-1.50;73.75
14689;BME280;7432;48.728;9.154;2023-02-28T07:38:41;97204.19;;;-1.52;74.42
14689;BME280;7432;48.728;9.154;2023-02-28T07:41:08;97202.25;;;-1.47;73.57
14689;BME280;7432;48.728;9.154;2023-02-28T07:43:35;97205.13;;;-1.55;73.96
14689;BME280;7432;48.728;9.154;2023-02-28T07:46:03;97202.44;;;-1.50;73.37
14689;BME280;7432;48.728;9.154;2023-02-28T07:48:30;97196.56;;;-1.51;73.23
14689;BME280;7432;48.728;9.154;2023-02-28T07:50:59;97202.00;;;-1.41;72.52
14689;BME280;7432;48.728;9.154;2023-02-28T07:53:25;97207.47;;;-1.32;72.49
14689;BME280;7432;48.728;9.154;2023-02-28T07:55:54;97208.88;;;-1.26;71.93
14689;BME280;7432;48.728;9.154;2023-02-28T07:58:21;97201.53;;;-1.13;71.96
14689;BME280;7432;48.728;9.154;2023-02-28T08:00:47;97207.06;;;-1.05;71.35
14689;BME280;7432;48.728;9.154;2023-02-28T08:03:14;97208.09;;;-1.09;71.81
14689;BME280;7432;48.728;9.154;2023-02-28T08:05:40;97214.44;;;-1.20;71.95
14689;BME280;7432;48.728;9.154;2023-02-28T08:08:08;97210.50;;;-1.25;72.16
14689;BME280;7432;48.728;9.154;2023-02-28T08:10:34;97219.31;;;-1.34;71.48
14689;BME280;7432;48.728;9.154;2023-02-28T08:13:01;97224.41;;;-1.16;72.20
14689;BME280;7432;48.728;9.154;2023-02-28T08:15:27;97217.53;;;-1.13;71.56
14689;BME280;7432;48.728;9.154;2023-02-28T08:17:54;97215.59;;;-1.08;71.17
14689;BME280;7432;48.728;9.154;2023-02-28T08:20:21;97207.66;;;-1.17;71.89
14689;BME280;7432;48.728;9.154;2023-02-28T08:22:48;97213.81;;;-1.06;71.36
14689;BME280;7432;48.728;9.154;2023-02-28T08:25:15;97211.03;;;-0.83;70.83
14689;BME280;7432;48.728;9.154;2023-02-28T08:27:42;97213.75;;;-0.87;69.99
14689;BME280;7432;48.728;9.154;2023-02-28T08:30:10;97206.03;;;-1.01;71.26
14689;BME280;7432;48.728;9.154;2023-02-28T08:32:37;97215.31;;;-1.02;70.65
14689;BME280;7432;48.728;9.154;2023-02-28T08:35:04;97223.09;;;-1.06;71.53
14689;BME280;7432;48.728;9.154;2023-02-28T08:37:31;97214.41;;;-1.01;71.16
14689;BME280;7432;48.728;9.154;2023-02-28T08:39:57;97209.63;;;-0.88;70.85
14689;BME280;7432;48.728;9.154;2023-02-28T08:42:25;97212.81;;;-0.85;70.38
14689;BME280;7432;48.728;9.154;2023-02-28T08:44:51;97215.34;;;-0.85;70.56
14689;BME280;7432;48.728;9.154;2023-02-28T08:47:18;97217.56;;;-0.96;70.75
14689;BME280;7432;48.728;9.154;2023-02-28T08:49:44;97215.38;;;-1.03;70.57
14689;BME280;7432;48.728;9.154;2023-02-28T08:52:11;97221.94;;;-0.99;70.44
14689;BME280;7432;48.728;9.154;2023-02-28T08:54:37;97218.50;;;-0.98;70.92
14689;BME280;7432;48.728;9.154;2023-02-28T08:57:04;97230.81;;;-0.91;70.65
14689;BME280;7432;48.728;9.154;2023-02-28T08:59:32;97224.91;;;-0.91;70.79
14689;BME280;7432;48.728;9.154;2023-02-28T09:01:58;97221.97;;;-0.82;70.63
14689;BME280;7432;48.728;9.154;2023-02-28T09:04:27;97231.25;;;-0.83;70.45
14689;BME280;7432;48.728;9.154;2023-02-28T09:06:55;97235.72;;;-0.88;70.27
14689;BME280;7432;48.728;9.154;2023-02-28T09:09:22;97232.03;;;-0.64;70.10
14689;BME280;7432;48.728;9.154;2023-02-28T09:11:48;97239.31;;;-0.57;69.46
14689;BME280;7432;48.728;9.154;2023-02-28T09:14:14;97230.53;;;-0.50;69.12
14689;BME280;7432;48.728;9.154;2023-02-28T09:16:43;97230.97;;;-0.60;68.97
14689;BME280;7432;48.728;9.154;2023-02-28T09:19:10;97235.69;;;-0.52;69.64
14689;BME280;7432;48.728;9.154;2023-02-28T09:21:37;97242.50;;;-0.54;69.27
14689;BME280;7432;48.728;9.154;2023-02-28T09:24:03;97239.97;;;-0.54;68.70
14689;BME280;7432;48.728;9.154;2023-02-28T09:26:30;97244.88;;;-0.51;68.45
14689;BME280;7432;48.728;9.154;2023-02-28T09:28:56;97241.03;;;-0.58;69.38
14689;BME280;7432;48.728;9.154;2023-02-28T09:31:25;97241.63;;;-0.36;68.71
14689;BME280;7432;48.728;9.154;2023-02-28T09:33:55;97238.31;;;-0.21;67.91
14689;BME280;7432;48.728;9.154;2023-02-28T09:36:23;97241.13;;;0.08;67.77
14689;BME280;7432;48.728;9.154;2023-02-28T09:38:50;97250.66;;;0.03;66.52
14689;BME280;7432;48.728;9.154;2023-02-28T09:41:20;97243.09;;;-0.15;66.92
14689;BME280;7432;48.728;9.154;2023-02-28T09:43:50;97249.41;;;-0.23;67.65
14689;BME280;7432;48.728;9.154;2023-02-28T09:46:27;97252.00;;;-0.08;67.64
14689;BME280;7432;48.728;9.154;2023-02-28T09:48:59;97255.47;;;0.07;66.86
14689;BME280;7432;48.728;9.154;2023-02-28T09:51:33;97258.53;;;0.14;65.43
14689;BME280;7432;48.728;9.154;2023-02-28T09:54:00;97251.31;;;0.06;65.70
14689;BME280;7432;48.728;9.154;2023-02-28T09:56:31;97256.78;;;0.14;66.03
14689;BME280;7432;48.728;9.154;2023-02-28T09:59:01;97254.19;;;0.16;65.31
14689;BME280;7432;48.728;9.154;2023-02-28T10:01:31;97254.78;;;0.21;65.38
14689;BME280;7432;48.728;9.154;2023-02-28T10:04:08;97263.31;;;0.35;65.57
14689;BME280;7432;48.728;9.154;2023-02-28T10:06:41;97259.72;;;0.55;64.24
14689;BME280;7432;48.728;9.154;2023-02-28T10:09:13;97265.59;;;0.24;64.81
14689;BME280;7432;48.728;9.154;2023-02-28T10:11:43;97262.72;;;0.30;65.05
14689;BME280;7432;48.728;9.154;2023-02-28T10:14:13;97263.13;;;0.38;64.60
14689;BME280;7432;48.728;9.154;2023-02-28T10:16:44;97268.75;;;0.28;65.92
14689;BME280;7432;48.728;9.154;2023-02-28T10:19:17;97269.66;;;0.59;65.06
14689;BME280;7432;48.728;9.154;2023-02-28T10:21:50;97273.09;;;0.90;63.88
14689;BME280;7432;48.728;9.154;2023-02-28T10:24:23;97290.25;;;0.85;63.38
14689;BME280;7432;48.728;9.154;2023-02-28T10:26:55;97281.28;;;0.79;64.14
14689;BME280;7432;48.728;9.154;2023-02-28T10:29:23;97284.44;;;0.83;63.33
14689;BME280;7432;48.728;9.154;2023-02-28T10:31:49;97278.88;;;0.60;63.39
14689;BME280;7432;48.728;9.154;2023-02-28T10:34:17;97280.44;;;0.79;63.21
14689;BME280;7432;48.728;9.154;2023-02-28T10:36:44;97279.31;;;0.84;62.94
14689;BME280;7432;48.728;9.154;2023-02-28T10:39:39;97280.75;;;1.04;62.60
14689;BME280;7432;48.728;9.154;2023-02-28T10:42:20;97282.56;;;1.33;62.69
14689;BME280;7432;48.728;9.154;2023-02-28T10:44:46;97276.84;;;1.59;61.35
14689;BME280;7432;48.728;9.154;2023-02-28T10:47:14;97279.59;;;1.70;61.01
14689;BME280;7432;48.728;9.154;2023-02-28T10:49:49;97273.47;;;1.74;60.35
14689;BME280;7432;48.728;9.154;2023-02-28T10:52:32;97273.84;;;1.83;60.25
14689;BME280;7432;48.728;9.154;2023-02-28T10:55:15;97267.59;;;1.88;60.35
14689;BME280;7432;48.728;9.154;2023-02-28T10:57:41;97270.25;;;1.71;59.80
14689;BME280;7432;48.728;9.154;2023-02-28T11:00:14;97278.84;;;1.98;58.70
14689;BME280;7432;48.728;9.154;2023-02-28T11:02:42;97272.63;;;2.32;57.92
14689;BME280;7432;48.728;9.154;2023-02-28T11:05:29;97275.19;;;2.32;58.45
14689;BME280;7432;48.728;9.154;2023-02-28T11:07:58;97283.41;;;2.64;57.80
14689;BME280;7432;48.728;9.154;2023-02-28T11:10:29;97281.94;;;2.60;57.03
14689;BME280;7432;48.728;9.154;2023-02-28T11:12:57;97277.78;;;2.73;57.15
14689;BME280;7432;48.728;9.154;2023-02-28T11:15:26;97273.66;;;2.84;56.02
14689;BME280;7432;48.728;9.154;2023-02-28T11:17:54;97277.00;;;2.99;55.88
14689;BME280;7432;48.728;9.154;2023-02-28T11:20:23;97274.63;;;2.41;56.13
14689;BME280;7432;48.728;9.154;2023-02-28T11:22:53;97267.44;;;2.19;58.04
14689;BME280;7432;48.728;9.154;2023-02-28T11:25:23;97272.28;;;1.94;58.75
14689;BME280;7432;48.728;9.154;2023-02-28T11:27:52;97268.50;;;2.01;57.98
14689;BME280;7432;48.728;9.154;2023-02-28T11:30:25;97268.09;;;2.37;57.92
14689;BME280;7432;48.728;9.154;2023-02-28T11:32:51;97276.97;;;2.44;56.68
14689;BME280;7432;48.728;9.154;2023-02-28T11:35:23;97277.13;;;1.99;59.67
14689;BME280;7432;48.728;9.154;2023-02-28T11:37:52;97273.41;;;1.90;59.25
14689;BME280;7432;48.728;9.154;2023-02-28T11:40:24;97259.81;;;1.91;59.14
14689;BME280;7432;48.728;9.154;2023-02-28T11:43:00;97258.59;;;1.83;58.93
14689;BME280;7432;48.728;9.154;2023-02-28T11:45:39;97271.53;;;1.78;60.09
14689;BME280;7432;48.728;9.154;2023-02-28T11:48:13;97265.06;;;1.88;59.06
14689;BME280;7432;48.728;9.154;2023-02-28T11:50:49;97260.84;;;1.73;59.57
14689;BME280;7432;48.728;9.154;2023-02-28T11:53:35;97265.47;;;1.80;60.94
14689;BME280;7432;48.728;9.154;2023-02-28T11:56:08;97251.72;;;1.85;58.86
14689;BME280;7432;48.728;9.154;2023-02-28T11:58:44;97245.72;;;2.00;60.26
14689;BME280;7432;48.728;9.154;2023-02-28T12:01:25;97249.13;;;2.14;59.07
14689;BME280;7432;48.728;9.154;2023-02-28T12:04:03;97248.28;;;2.14;59.23
14689;BME280;7432;48.728;9.154;2023-02-28T12:06:33;97244.75;;;2.16;58.60
14689;BME280;7432;48.728;9.154;2023-02-28T12:09:16;97252.84;;;2.37;57.99
14689;BME280;7432;48.728;9.154;2023-02-28T12:11:51;97247.75;;;2.51;57.09
14689;BME280;7432;48.728;9.154;2023-02-28T12:14:39;97253.03;;;2.62;57.26
14689;BME280;7432;48.728;9.154;2023-02-28T12:17:22;97242.97;;;2.87;57.30
14689;BME280;7432;48.728;9.154;2023-02-28T12:19:56;97244.03;;;2.97;56.10
14689;BME280;7432;48.728;9.154;2023-02-28T12:22:28;97243.09;;;3.13;55.51
14689;BME280;7432;48.728;9.154;2023-02-28T12:28:00;97239.66;;;2.99;55.85
14689;BME280;7432;48.728;9.154;2023-02-28T12:30:28;97240.94;;;2.92;56.21
14689;BME280;7432;48.728;9.154;2023-02-28T12:33:01;97239.00;;;2.83;55.51
14689;BME280;7432;48.728;9.154;2023-02-28T12:35:34;97237.72;;;2.76;56.75
14689;BME280;7432;48.728;9.154;2023-02-28T12:38:05;97228.78;;;2.97;55.74
14689;BME280;7432;48.728;9.154;2023-02-28T12:40:42;97229.19;;;3.04;55.60
14689;BME280;7432;48.728;9.154;2023-02-28T12:43:12;97224.44;;;3.12;55.27
14689;BME280;7432;48.728;9.154;2023-02-28T12:45:42;97225.91;;;3.16;56.95
14689;BME280;7432;48.728;9.154;2023-02-28T12:48:14;97225.19;;;3.14;55.14
14689;BME280;7432;48.728;9.154;2023-02-28T12:50:41;97218.69;;;2.96;56.45
14689;BME280;7432;48.728;9.154;2023-02-28T12:53:13;97218.22;;;3.04;57.50
14689;BME280;7432;48.728;9.154;2023-02-28T12:55:46;97220.56;;;3.07;55.74
14689;BME280;7432;48.728;9.154;2023-02-28T12:58:21;97224.50;;;2.98;57.05
14689;BME280;7432;48.728;9.154;2023-02-28T13:01:09;97225.16;;;2.87;57.25
14689;BME280;7432;48.728;9.154;2023-02-28T13:03:51;97218.88;;;2.93;57.16
14689;BME280;7432;48.728;9.154;2023-02-28T13:06:42;97216.66;;;3.01;56.51
14689;BME280;7432;48.728;9.154;2023-02-28T13:09:11;97214.78;;;3.17;56.70
14689;BME280;7432;48.728;9.154;2023-02-28T13:11:42;97220.56;;;3.07;56.13
14689;BME280;7432;48.728;9.154;2023-02-28T13:14:26;97209.97;;;3.00;55.64
14689;BME280;7432;48.728;9.154;2023-02-28T13:17:01;97213.31;;;3.00;55.61
14689;BME280;7432;48.728;9.154;2023-02-28T13:19:30;97221.50;;;3.06;55.78
14689;BME280;7432;48.728;9.154;2023-02-28T13:21:58;97206.41;;;3.03;56.39
14689;BME280;7432;48.728;9.154;2023-02-28T13:24:52;97219.53;;;3.09;55.73
14689;BME280;7432;48.728;9.154;2023-02-28T13:27:33;97212.47;;;3.14;56.78
14689;BME280;7432;48.728;9.154;2023-02-28T13:33:25;97198.19;;;3.12;56.53
14689;BME280;7432;48.728;9.154;2023-02-28T13:36:07;97205.34;;;3.19;55.89
14689;BME280;7432;48.728;9.154;2023-02-28T13:38:36;97201.06;;;3.20;55.61